Time;durP1;ratioP1;P1;durP2;ratioP2;P2;SDS_P1;SDS_P2;PMS_P1;PMS_P2;Temp;Humidity;BMP_temperature;BMP_pressure;BME280_temperature;BME280_humidity;BME280_pressure;Samples;Min_cycle;Max_cycle;Signal;HPM_P1;HPM_P2
2023/09/25 00:02:09;;;;;;;2.97;1.03;;;14.40;99.90;;;;;;5063964;28;20037;-68
2023/09/25 00:04:35;;;;;;;2.42;1.25;;;14.40;99.90;;;;;;5061816;28;20181;-68
2023/09/25 00:07:03;;;;;;;2.30;1.23;;;14.40;99.90;;;;;;5040489;28;20060;-68
2023/09/25 00:09:29;;;;;;;2.88;1.30;;;14.40;99.90;;;;;;5069703;28;20288;-68
2023/09/25 00:11:54;;;;;;;2.40;1.50;;;14.40;99.90;;;;;;5058781;28;20630;-68
2023/09/25 00:14:20;;;;;;;3.53;1.40;;;14.40;99.90;;;;;;5056577;28;20037;-69
2023/09/25 00:16:46;;;;;;;3.78;1.30;;;14.40;99.90;;;;;;5036302;28;20289;-68
2023/09/25 00:19:17;;;;;;;2.03;1.30;;;14.40;99.90;;;;;;5046047;28;20051;-68
2023/09/25 00:21:43;;;;;;;4.55;1.48;;;14.40;99.90;;;;;;5062557;28;20041;-68
2023/09/25 00:24:08;;;;;;;2.13;1.10;;;14.30;99.90;;;;;;5060672;28;20404;-69
2023/09/25 00:26:34;;;;;;;4.35;1.48;;;14.30;99.90;;;;;;5045700;28;20422;-68
2023/09/25 00:29:03;;;;;;;4.47;1.55;;;14.30;99.90;;;;;;5057892;28;20492;-68
2023/09/25 00:31:30;;;;;;;2.70;1.30;;;14.30;99.90;;;;;;5060268;28;20131;-69
2023/09/25 00:33:56;;;;;;;3.47;1.45;;;14.30;99.90;;;;;;5061065;28;20071;-68
2023/09/25 00:36:25;;;;;;;4.78;1.92;;;14.30;99.90;;;;;;5064966;28;20032;-68
2023/09/25 00:38:50;;;;;;;3.45;1.38;;;14.20;99.90;;;;;;5069140;28;20059;-69
2023/09/25 00:41:16;;;;;;;2.90;1.15;;;14.20;99.90;;;;;;5058289;28;20119;-68
2023/09/25 00:43:45;;;;;;;2.83;1.20;;;14.20;99.90;;;;;;5046386;28;20055;-68
2023/09/25 00:46:13;;;;;;;4.03;1.40;;;14.20;99.90;;;;;;5038906;28;20048;-68
2023/09/25 00:48:42;;;;;;;5.43;1.70;;;14.20;99.90;;;;;;5051698;28;20037;-68
2023/09/25 00:51:09;;;;;;;3.88;1.60;;;14.10;99.90;;;;;;5057949;28;20075;-68
2023/09/25 00:53:35;;;;;;;4.50;1.30;;;14.10;99.90;;;;;;5055900;28;20119;-68
2023/09/25 00:56:01;;;;;;;3.47;1.38;;;14.10;99.90;;;;;;5040524;28;20832;-68
2023/09/25 00:58:27;;;;;;;4.28;1.60;;;14.10;99.90;;;;;;5043288;28;20043;-68
2023/09/25 01:00:56;;;;;;;3.10;1.27;;;14.00;99.90;;;;;;5057500;28;20117;-68
2023/09/25 01:03:22;;;;;;;2.88;1.50;;;14.00;99.90;;;;;;5040564;28;20507;-68
2023/09/25 01:05:50;;;;;;;3.03;1.58;;;14.00;99.90;;;;;;5057255;28;20505;-68
2023/09/25 01:08:16;;;;;;;3.85;1.77;;;14.00;99.90;;;;;;5057909;28;20032;-68
2023/09/25 01:10:42;;;;;;;4.75;1.48;;;14.00;99.90;;;;;;5053919;28;20045;-69
2023/09/25 01:13:09;;;;;;;4.82;2.33;;;13.90;99.90;;;;;;5062473;28;20052;-69
2023/09/25 01:15:35;;;;;;;5.22;1.70;;;13.90;99.90;;;;;;5047516;28;20406;-68
2023/09/25 01:18:03;;;;;;;2.85;1.77;;;13.90;99.90;;;;;;5060469;28;20068;-68
2023/09/25 01:20:29;;;;;;;4.68;1.67;;;13.90;99.90;;;;;;5039693;28;20697;-68
2023/09/25 01:22:55;;;;;;;4.15;1.85;;;13.90;99.90;;;;;;5039434;28;20093;-68
2023/09/25 01:25:23;;;;;;;4.30;1.73;;;13.90;99.90;;;;;;5039048;28;20053;-67
2023/09/25 01:27:48;;;;;;;3.10;1.50;;;13.80;99.90;;;;;;5027093;28;20319;-68
2023/09/25 01:30:17;;;;;;;5.53;2.05;;;13.80;99.90;;;;;;5056275;28;20075;-68
2023/09/25 01:32:45;;;;;;;3.58;1.58;;;13.70;99.90;;;;;;5058165;28;20568;-68
2023/09/25 01:35:15;;;;;;;7.85;1.35;;;13.70;99.90;;;;;;5050486;28;20473;-68
2023/09/25 01:37:42;;;;;;;2.58;1.30;;;13.70;99.90;;;;;;5061019;28;20119;-68
2023/09/25 01:40:17;;;;;;;4.18;1.90;;;13.60;99.90;;;;;;5058151;28;20046;-68
2023/09/25 01:42:44;;;;;;;3.08;1.35;;;13.60;99.90;;;;;;5065166;28;20569;-68
2023/09/25 01:45:11;;;;;;;4.32;1.60;;;13.60;99.90;;;;;;5036801;28;20127;-67
2023/09/25 01:47:37;;;;;;;4.15;1.27;;;13.60;99.90;;;;;;5063058;28;20085;-69
2023/09/25 01:50:03;;;;;;;5.72;1.70;;;13.60;99.90;;;;;;5057900;28;20484;-67
2023/09/25 01:52:32;;;;;;;5.25;2.03;;;13.50;99.90;;;;;;5058845;28;21161;-68
2023/09/25 01:54:58;;;;;;;4.07;2.10;;;13.60;99.90;;;;;;5039676;28;20040;-67
2023/09/25 01:57:24;;;;;;;4.10;1.70;;;13.50;99.90;;;;;;5058308;28;20051;-68
2023/09/25 01:59:49;;;;;;;5.82;1.60;;;13.50;99.90;;;;;;5057662;28;20098;-68
2023/09/25 02:02:15;;;;;;;5.47;2.00;;;13.50;99.90;;;;;;5056450;28;20093;-68
2023/09/25 02:04:41;;;;;;;7.43;2.00;;;13.50;99.90;;;;;;5055007;28;20815;-68
2023/09/25 02:07:06;;;;;;;3.80;2.37;;;13.50;99.90;;;;;;5052771;28;20045;-68
2023/09/25 02:09:32;;;;;;;6.07;2.10;;;13.50;99.90;;;;;;5057177;28;20037;-68
2023/09/25 02:12:01;;;;;;;3.15;1.92;;;13.40;99.90;;;;;;5040907;28;20040;-68
2023/09/25 02:14:29;;;;;;;4.50;1.90;;;13.50;99.90;;;;;;5046199;28;20051;-68
2023/09/25 02:16:55;;;;;;;5.57;1.70;;;13.40;99.90;;;;;;5062035;28;20306;-68
2023/09/25 02:19:23;;;;;;;4.47;1.90;;;13.40;99.90;;;;;;5059219;28;20047;-68
2023/09/25 02:21:51;;;;;;;3.42;1.52;;;13.40;99.90;;;;;;5060104;28;20053;-68
2023/09/25 02:24:17;;;;;;;3.70;1.83;;;13.40;99.90;;;;;;5060780;28;20131;-68
2023/09/25 02:26:42;;;;;;;3.47;2.00;;;13.40;99.90;;;;;;5039590;28;20075;-68
2023/09/25 02:29:09;;;;;;;3.73;2.00;;;13.40;99.90;;;;;;5065233;28;20817;-68
2023/09/25 02:31:35;;;;;;;6.85;1.95;;;13.40;99.90;;;;;;5059588;28;20043;-68
2023/09/25 02:34:01;;;;;;;4.43;2.60;;;13.40;99.90;;;;;;5053299;28;20528;-68
2023/09/25 02:36:29;;;;;;;2.65;1.65;;;13.30;99.90;;;;;;5044464;28;20140;-68
2023/09/25 02:38:56;;;;;;;3.40;2.10;;;13.40;99.90;;;;;;5064251;28;20037;-67
2023/09/25 02:41:24;;;;;;;4.18;2.05;;;13.40;99.90;;;;;;5054224;28;20531;-68
2023/09/25 02:43:49;;;;;;;3.53;1.60;;;13.40;99.90;;;;;;5059684;28;20088;-68
2023/09/25 02:46:15;;;;;;;3.03;1.67;;;13.30;99.90;;;;;;5064317;28;20488;-69
2023/09/25 02:48:41;;;;;;;7.93;2.07;;;13.30;99.90;;;;;;5048944;28;20060;-69
2023/09/25 02:51:09;;;;;;;3.67;1.70;;;13.30;99.90;;;;;;5061495;28;20289;-69
2023/09/25 02:53:34;;;;;;;4.95;2.13;;;13.30;99.90;;;;;;5058079;28;20052;-69
2023/09/25 02:56:00;;;;;;;2.90;1.77;;;13.30;99.90;;;;;;5065914;28;20400;-69
2023/09/25 02:58:26;;;;;;;3.87;1.93;;;13.20;99.90;;;;;;5033105;28;20104;-69
2023/09/25 03:00:54;;;;;;;5.70;1.90;;;13.20;99.90;;;;;;5061477;28;20052;-68
2023/09/25 03:03:20;;;;;;;5.88;1.70;;;13.20;99.90;;;;;;5071964;28;20059;-69
2023/09/25 03:05:47;;;;;;;3.67;1.85;;;13.20;99.90;;;;;;5053344;28;20029;-69
2023/09/25 03:08:12;;;;;;;8.73;2.17;;;13.20;99.90;;;;;;5048037;28;20067;-69
2023/09/25 03:10:41;;;;;;;4.20;1.40;;;13.20;99.90;;;;;;5066463;28;20040;-69
2023/09/25 03:13:09;;;;;;;3.95;2.00;;;13.10;99.90;;;;;;5064669;28;20142;-68
2023/09/25 03:15:35;;;;;;;3.83;2.03;;;13.20;99.90;;;;;;5039070;28;20267;-69
2023/09/25 03:18:00;;;;;;;3.67;1.70;;;13.20;99.90;;;;;;5044664;28;20400;-69
2023/09/25 03:20:26;;;;;;;3.13;1.87;;;13.10;99.90;;;;;;5050641;28;20284;-69
2023/09/25 03:22:54;;;;;;;7.57;1.95;;;13.20;99.90;;;;;;5065868;28;20496;-68
2023/09/25 03:25:23;;;;;;;3.63;1.48;;;13.20;99.90;;;;;;5052814;28;20044;-69
2023/09/25 03:27:49;;;;;;;5.22;2.22;;;13.20;99.90;;;;;;5057251;28;20041;-69
2023/09/25 03:30:15;;;;;;;4.95;1.63;;;13.10;99.90;;;;;;5062860;28;20052;-69
2023/09/25 03:32:42;;;;;;;5.50;2.65;;;13.10;99.90;;;;;;5046139;28;20123;-69
2023/09/25 03:35:08;;;;;;;;;;;13.10;99.90;;;;;;5060583;28;20527;-69
2023/09/25 03:37:34;;;;;;;3.38;1.58;;;13.10;99.90;;;;;;5044720;28;19927;-69
2023/09/25 03:40:07;;;;;;;3.70;2.33;;;13.10;99.90;;;;;;5065158;28;20036;-69
2023/09/25 03:42:33;;;;;;;3.63;1.75;;;13.10;99.90;;;;;;5040492;28;20056;-68
2023/09/25 03:44:59;;;;;;;;;;;13.10;99.90;;;;;;5033445;28;20123;-68
2023/09/25 03:47:27;;;;;;;5.10;2.25;;;13.10;99.90;;;;;;5044613;28;19920;-69
2023/09/25 03:49:53;;;;;;;4.95;2.17;;;13.10;99.90;;;;;;5064673;28;20041;-69
2023/09/25 03:52:19;;;;;;;4.13;2.00;;;13.00;99.90;;;;;;5042814;28;20511;-69
2023/09/25 03:54:44;;;;;;;3.87;2.13;;;13.00;99.90;;;;;;5042442;28;20041;-69
2023/09/25 03:57:12;;;;;;;4.83;2.00;;;13.00;99.90;;;;;;5064606;28;20041;-68
2023/09/25 03:59:38;;;;;;;5.22;2.03;;;13.00;99.90;;;;;;5060912;28;20126;-69
2023/09/25 04:02:03;;;;;;;3.67;1.85;;;13.00;99.90;;;;;;5044364;28;20564;-69
2023/09/25 04:04:32;;;;;;;4.10;2.20;;;13.00;99.90;;;;;;5065851;28;20040;-69
2023/09/25 04:07:00;;;;;;;4.78;2.30;;;13.10;99.90;;;;;;5062272;28;20048;-68
2023/09/25 04:09:26;;;;;;;3.13;1.97;;;13.00;99.90;;;;;;5066538;28;20047;-71
2023/09/25 04:11:51;;;;;;;5.13;2.20;;;13.00;99.90;;;;;;5062321;28;20783;-69
2023/09/25 04:14:21;;;;;;;6.65;1.73;;;13.00;99.90;;;;;;5025253;28;20055;-69
2023/09/25 04:16:46;;;;;;;3.95;2.10;;;13.00;99.90;;;;;;5064392;28;20051;-69
2023/09/25 04:19:12;;;;;;;3.93;2.00;;;12.90;99.90;;;;;;5044473;28;20048;-69
2023/09/25 04:21:38;;;;;;;6.55;2.33;;;12.90;99.90;;;;;;5040257;28;20037;-69
2023/09/25 04:24:04;;;;;;;4.78;1.95;;;12.90;99.90;;;;;;5063237;28;20036;-69
2023/09/25 04:26:30;;;;;;;4.03;2.03;;;13.00;99.90;;;;;;5038933;28;20170;-69
2023/09/25 04:28:58;;;;;;;3.85;2.03;;;12.90;99.90;;;;;;5039364;28;20198;-69
2023/09/25 04:31:23;;;;;;;4.38;2.00;;;12.90;99.90;;;;;;5040921;28;20040;-68
2023/09/25 04:33:50;;;;;;;6.03;2.17;;;12.90;99.90;;;;;;5061791;28;20059;-69
2023/09/25 04:36:16;;;;;;;7.55;2.47;;;13.00;99.90;;;;;;5043611;28;20804;-69
2023/09/25 04:38:44;;;;;;;3.78;1.80;;;12.90;99.90;;;;;;5045510;28;20032;-69
2023/09/25 04:41:10;;;;;;;4.28;2.10;;;12.90;99.90;;;;;;5040360;28;20041;-68
2023/09/25 04:43:36;;;;;;;3.67;1.85;;;13.00;99.90;;;;;;5044241;28;20055;-68
2023/09/25 04:46:01;;;;;;;2.63;1.80;;;12.90;99.90;;;;;;5041159;28;20071;-68
2023/09/25 04:48:29;;;;;;;3.63;1.75;;;12.90;99.90;;;;;;5047044;28;20037;-68
2023/09/25 04:50:56;;;;;;;4.75;2.17;;;12.90;99.90;;;;;;5063730;28;20049;-68
2023/09/25 04:53:22;;;;;;;4.75;1.73;;;12.90;99.90;;;;;;5044549;28;20037;-69
2023/09/25 04:55:48;;;;;;;5.38;1.83;;;12.90;99.90;;;;;;5041463;28;20045;-69
2023/09/25 04:58:13;;;;;;;3.87;1.70;;;13.00;99.90;;;;;;5062185;28;20095;-69
2023/09/25 05:00:41;;;;;;;3.63;2.03;;;13.00;99.90;;;;;;5042639;28;20392;-69
2023/09/25 05:03:09;;;;;;;3.67;1.95;;;12.90;99.90;;;;;;5059944;28;20316;-69
2023/09/25 05:05:35;;;;;;;4.57;1.88;;;12.90;99.90;;;;;;5060602;28;20071;-68
2023/09/25 05:08:01;;;;;;;3.45;1.30;;;13.00;99.90;;;;;;5059887;28;20064;-69
2023/09/25 05:10:28;;;;;;;2.95;1.65;;;12.90;99.90;;;;;;5060725;28;20067;-68
2023/09/25 05:12:55;;;;;;;4.63;1.80;;;13.00;99.90;;;;;;5063040;28;20041;-68
2023/09/25 05:15:21;;;;;;;5.38;1.73;;;12.90;99.90;;;;;;5041486;28;20107;-69
2023/09/25 05:17:48;;;;;;;3.72;1.63;;;13.00;99.90;;;;;;5062964;28;20028;-69
2023/09/25 05:20:26;;;;;;;3.55;1.70;;;13.00;99.90;;;;;;5063087;28;20048;-68
2023/09/25 05:22:56;;;;;;;4.35;2.05;;;13.00;99.90;;;;;;5045948;28;20584;-69
2023/09/25 05:25:23;;;;;;;3.92;1.80;;;13.00;99.90;;;;;;5041818;28;20040;-69
2023/09/25 05:27:51;;;;;;;3.83;2.00;;;13.10;99.90;;;;;;5030124;28;20032;-68
2023/09/25 05:30:18;;;;;;;2.20;1.50;;;13.00;99.90;;;;;;5059872;28;20028;-68
2023/09/25 05:32:45;;;;;;;3.05;1.65;;;13.00;99.90;;;;;;5049159;28;20033;-68
2023/09/25 05:35:11;;;;;;;2.78;1.77;;;13.00;99.90;;;;;;5056948;28;20067;-69
2023/09/25 05:37:40;;;;;;;4.65;1.73;;;13.00;99.90;;;;;;5045713;28;20083;-68
2023/09/25 05:40:09;;;;;;;2.50;1.50;;;13.00;99.90;;;;;;5043562;28;20127;-69
2023/09/25 05:42:37;;;;;;;2.47;1.38;;;13.00;99.90;;;;;;5045810;28;20032;-69
2023/09/25 05:45:04;;;;;;;4.32;1.90;;;13.00;99.90;;;;;;5054777;28;20045;-69
2023/09/25 05:47:29;;;;;;;;;;;13.00;99.90;;;;;;5056170;28;20368;-69
2023/09/25 05:49:55;;;;;;;4.75;1.83;;;13.00;99.90;;;;;;5039953;28;19920;-71
2023/09/25 05:52:23;;;;;;;3.37;1.60;;;13.00;99.90;;;;;;5027992;28;20131;-73
2023/09/25 05:54:49;;;;;;;2.83;1.60;;;13.00;99.90;;;;;;5038310;28;20316;-69
2023/09/25 05:57:15;;;;;;;4.22;1.83;;;13.00;99.90;;;;;;5061897;28;20540;-71
2023/09/25 05:59:41;;;;;;;3.83;1.85;;;13.00;99.90;;;;;;5042025;28;20072;-71
2023/09/25 06:02:07;;;;;;;4.28;1.80;;;13.00;99.90;;;;;;5040810;28;20068;-69
2023/09/25 06:04:36;;;;;;;3.67;1.73;;;13.00;99.90;;;;;;5047680;28;20131;-69
2023/09/25 06:07:08;;;;;;;4.15;1.52;;;13.10;99.90;;;;;;5041433;28;20120;-69
2023/09/25 06:09:34;;;;;;;4.22;1.60;;;13.00;99.90;;;;;;5064657;28;20501;-69
2023/09/25 06:12:00;;;;;;;3.35;1.60;;;13.10;99.90;;;;;;5047132;28;20044;-68
2023/09/25 06:14:30;;;;;;;4.65;1.83;;;13.20;99.90;;;;;;5048285;28;20120;-69
2023/09/25 06:16:57;;;;;;;6.45;1.73;;;13.10;99.90;;;;;;5046423;28;20044;-68
2023/09/25 06:19:24;;;;;;;3.47;1.40;;;13.20;99.90;;;;;;5067114;28;20047;-68
2023/09/25 06:21:56;;;;;;;2.72;1.38;;;13.20;99.90;;;;;;5062776;28;20037;-69
2023/09/25 06:24:25;;;;;;;3.00;1.58;;;13.20;99.90;;;;;;5067422;28;20033;-69
2023/09/25 06:26:53;;;;;;;2.78;1.33;;;13.30;99.90;;;;;;5064642;28;20040;-69
2023/09/25 06:29:21;;;;;;;2.75;1.27;;;13.30;99.90;;;;;;5063687;28;20040;-69
2023/09/25 06:31:52;;;;;;;5.93;1.20;;;13.30;99.90;;;;;;5045888;28;20051;-69
2023/09/25 06:34:18;;;;;;;2.85;1.30;;;13.40;99.90;;;;;;5054793;28;20044;-69
2023/09/25 06:36:46;;;;;;;3.17;1.40;;;13.40;99.90;;;;;;5055657;28;20090;-68
2023/09/25 06:39:14;;;;;;;3.95;1.35;;;13.50;99.90;;;;;;5045077;28;20407;-68
2023/09/25 06:41:43;;;;;;;2.30;1.10;;;13.50;99.90;;;;;;5045254;28;20115;-68
2023/09/25 06:44:09;;;;;;;2.47;1.40;;;13.60;99.90;;;;;;5037638;28;20293;-68
2023/09/25 06:46:35;;;;;;;2.13;1.30;;;13.60;99.90;;;;;;5061456;28;20401;-68
2023/09/25 06:49:03;;;;;;;2.33;1.20;;;13.60;99.90;;;;;;5068384;28;20527;-68
2023/09/25 06:51:29;;;;;;;3.72;1.20;;;13.70;99.90;;;;;;5031239;28;20480;-69
2023/09/25 06:53:55;;;;;;;2.95;1.15;;;13.70;99.90;;;;;;5064243;28;20045;-68
2023/09/25 06:56:21;;;;;;;3.78;1.30;;;13.80;99.90;;;;;;5044862;28;20315;-68
2023/09/25 06:58:51;;;;;;;3.63;1.10;;;13.80;99.90;;;;;;5067644;28;20036;-68
2023/09/25 07:01:18;;;;;;;4.70;1.13;;;13.80;99.90;;;;;;5047233;28;20032;-68
2023/09/25 07:03:45;;;;;;;4.22;1.67;;;13.90;99.90;;;;;;5064667;28;20130;-68
2023/09/25 07:06:10;;;;;;;3.03;1.70;;;13.90;99.90;;;;;;5061693;28;20144;-69
2023/09/25 07:08:38;;;;;;;4.10;1.40;;;13.90;99.90;;;;;;5051124;28;20123;-68
2023/09/25 07:11:04;;;;;;;4.00;1.30;;;13.90;99.90;;;;;;5030310;28;20208;-68
2023/09/25 07:13:31;;;;;;;2.75;1.60;;;13.90;99.90;;;;;;5065169;28;20040;-69
2023/09/25 07:16:10;;;;;;;4.15;1.45;;;14.00;99.90;;;;;;5047115;28;20049;-68
2023/09/25 07:18:37;;;;;;;3.67;1.23;;;14.00;99.90;;;;;;5066769;28;20044;-68
2023/09/25 07:21:03;;;;;;;2.67;1.20;;;14.00;99.90;;;;;;5039047;28;20094;-69
2023/09/25 07:23:29;;;;;;;2.55;1.20;;;14.10;99.90;;;;;;5051071;28;20036;-69
2023/09/25 07:26:10;;;;;;;3.03;1.35;;;14.10;99.90;;;;;;5071592;28;20139;-68
2023/09/25 07:28:36;;;;;;;2.55;1.23;;;14.20;99.90;;;;;;5020695;28;20044;-68
2023/09/25 07:31:02;;;;;;;3.03;1.33;;;14.20;99.90;;;;;;5039106;28;20037;-68
2023/09/25 07:33:29;;;;;;;5.45;1.38;;;14.20;99.90;;;;;;5068448;28;20094;-70
2023/09/25 07:35:56;;;;;;;4.65;1.92;;;14.30;99.90;;;;;;5064939;28;20056;-73
2023/09/25 07:38:22;;;;;;;;;;;14.30;99.90;;;;;;5066120;28;20043;-69
2023/09/25 07:40:48;;;;;;;2.55;1.20;;;14.30;99.90;;;;;;5041112;28;19924;-70
2023/09/25 07:43:19;;;;;;;3.83;1.27;;;14.30;99.90;;;;;;5046973;28;20040;-70
2023/09/25 07:45:47;;;;;;;3.10;0.98;;;14.30;99.90;;;;;;5065232;28;20155;-70
2023/09/25 07:48:13;;;;;;;2.30;1.05;;;14.40;99.90;;;;;;5065947;28;20036;-71
2023/09/25 07:50:40;;;;;;;;;;;14.40;99.90;;;;;;5066196;28;20109;-69
2023/09/25 07:53:05;;;;;;;3.22;1.30;;;14.40;99.90;;;;;;5050085;28;20337;-70
2023/09/25 07:55:31;;;;;;;2.88;1.75;;;14.50;99.90;;;;;;5062199;28;20036;-69
2023/09/25 07:57:57;;;;;;;2.33;1.00;;;14.50;99.90;;;;;;5047337;28;20127;-69
2023/09/25 08:00:25;;;;;;;2.97;1.67;;;14.50;99.90;;;;;;5029058;28;20090;-72
2023/09/25 08:02:52;;;;;;;3.17;1.10;;;14.60;99.90;;;;;;5044642;28;20808;-70
2023/09/25 08:05:22;;;;;;;2.78;1.35;;;14.60;99.90;;;;;;5046126;28;20044;-71
2023/09/25 08:07:49;;;;;;;2.13;0.95;;;14.70;99.90;;;;;;5043049;28;20032;-69
2023/09/25 08:10:15;;;;;;;2.28;1.38;;;14.70;99.90;;;;;;5043832;28;20080;-69
2023/09/25 08:12:41;;;;;;;3.25;1.30;;;14.80;99.90;;;;;;5044855;28;20044;-70
2023/09/25 08:15:08;;;;;;;4.30;1.55;;;14.90;99.90;;;;;;5040923;28;20048;-69
2023/09/25 08:17:34;;;;;;;3.47;1.60;;;14.90;99.90;;;;;;5042842;28;20056;-69
2023/09/25 08:20:00;;;;;;;2.70;1.30;;;15.00;99.90;;;;;;5027855;28;20032;-71
2023/09/25 08:22:26;;;;;;;2.90;1.20;;;15.00;99.90;;;;;;5059282;28;20497;-70
2023/09/25 08:24:52;;;;;;;2.30;1.23;;;15.10;99.90;;;;;;5042226;28;20028;-69
2023/09/25 08:27:20;;;;;;;4.20;1.73;;;15.10;99.90;;;;;;5042746;28;20048;-70
2023/09/25 08:29:47;;;;;;;6.07;1.45;;;15.20;99.90;;;;;;5059069;28;20037;-70
2023/09/25 08:32:12;;;;;;;2.00;1.13;;;15.20;99.90;;;;;;5051818;28;20045;-70
2023/09/25 08:34:38;;;;;;;5.70;1.40;;;15.30;99.90;;;;;;5044956;28;20063;-70
2023/09/25 08:37:04;;;;;;;3.28;1.25;;;15.40;99.90;;;;;;5027505;28;20455;-70
2023/09/25 08:39:29;;;;;;;2.03;1.10;;;15.40;99.90;;;;;;5068534;28;20123;-70
2023/09/25 08:41:57;;;;;;;3.35;1.55;;;15.40;99.90;;;;;;5045782;28;20044;-70
2023/09/25 08:44:23;;;;;;;3.53;1.15;;;15.50;99.90;;;;;;5065770;28;20037;-70
2023/09/25 08:46:49;;;;;;;2.50;1.15;;;15.60;99.90;;;;;;5067672;28;20086;-70
2023/09/25 08:49:15;;;;;;;;;;;15.70;99.90;;;;;;5054131;28;21064;-70
2023/09/25 08:51:41;;;;;;;3.88;1.45;;;15.70;99.90;;;;;;5057765;28;19920;-70
2023/09/25 08:54:07;;;;;;;3.22;1.10;;;15.80;99.90;;;;;;5049474;28;20116;-70
2023/09/25 08:56:33;;;;;;;2.40;1.10;;;15.80;99.90;;;;;;5030318;28;20048;-70
2023/09/25 08:59:05;;;;;;;3.50;1.20;;;15.80;99.90;;;;;;5040361;28;20047;-70
2023/09/25 09:01:31;;;;;;;4.40;1.50;;;15.90;99.90;;;;;;5044744;28;20044;-70
2023/09/25 09:03:58;;;;;;;2.92;0.95;;;15.90;99.90;;;;;;5064625;28;20120;-70
2023/09/25 09:06:24;;;;;;;3.35;1.35;;;16.00;99.90;;;;;;5069853;28;20067;-70
2023/09/25 09:08:51;;;;;;;3.25;1.35;;;16.00;99.90;;;;;;5041722;28;20067;-70
2023/09/25 09:11:19;;;;;;;2.95;1.30;;;16.10;99.90;;;;;;5060919;28;20139;-69
2023/09/25 09:13:49;;;;;;;5.10;1.75;;;16.10;99.90;;;;;;5044546;28;20051;-70
2023/09/25 09:16:16;;;;;;;2.33;1.13;;;16.20;99.90;;;;;;5061850;28;20072;-70
2023/09/25 09:18:42;;;;;;;4.53;1.20;;;16.20;99.90;;;;;;5063615;28;20079;-70
2023/09/25 09:21:26;;;;;;;2.97;1.20;;;16.30;99.90;;;;;;5045544;28;20066;-70
2023/09/25 09:23:57;;;;;;;3.83;1.20;;;16.30;99.90;;;;;;5041819;28;20040;-69
2023/09/25 09:26:23;;;;;;;4.43;1.30;;;16.40;99.90;;;;;;5039374;28;20508;-70
2023/09/25 09:28:53;;;;;;;2.33;1.40;;;16.40;99.90;;;;;;5037909;28;20041;-70
2023/09/25 09:31:19;;;;;;;2.58;1.00;;;16.60;99.90;;;;;;5051217;28;20550;-69
2023/09/25 09:33:45;;;;;;;3.58;1.60;;;16.60;99.90;;;;;;5060698;28;20036;-70
2023/09/25 09:36:15;;;;;;;5.22;1.45;;;16.70;99.90;;;;;;5019875;28;20052;-69
2023/09/25 09:38:42;;;;;;;3.97;1.30;;;16.80;99.90;;;;;;5047217;28;20032;-69
2023/09/25 09:41:13;;;;;;;2.92;1.10;;;16.90;99.90;;;;;;5030852;28;20111;-69
2023/09/25 09:43:41;;;;;;;4.40;1.10;;;17.00;99.90;;;;;;5046002;28;20055;-69
2023/09/25 09:46:10;;;;;;;2.22;1.13;;;17.00;99.90;;;;;;5065421;28;20608;-69
2023/09/25 09:48:38;;;;;;;3.42;1.50;;;17.10;99.90;;;;;;5064737;28;20041;-70
2023/09/25 09:51:04;;;;;;;5.00;1.58;;;17.10;99.90;;;;;;5060412;28;20041;-69
2023/09/25 09:53:34;;;;;;;2.42;1.00;;;17.10;99.90;;;;;;5043856;28;20040;-69
2023/09/25 09:56:01;;;;;;;2.58;1.10;;;17.30;99.90;;;;;;5064649;28;20500;-69
2023/09/25 09:58:27;;;;;;;4.82;1.25;;;17.40;99.90;;;;;;5063430;28;20041;-69
2023/09/25 10:00:59;;;;;;;2.78;1.48;;;17.50;99.90;;;;;;5057593;28;20132;-68
2023/09/25 10:03:28;;;;;;;3.47;1.40;;;17.60;99.90;;;;;;5062947;28;20098;-68
2023/09/25 10:05:55;;;;;;;3.40;1.05;;;17.70;99.90;;;;;;5059362;28;20090;-68
2023/09/25 10:08:21;;;;;;;3.85;1.75;;;17.80;99.90;;;;;;5047397;28;20550;-68
2023/09/25 10:10:51;;;;;;;3.95;1.50;;;17.90;99.90;;;;;;5062306;28;20267;-68
2023/09/25 10:13:22;;;;;;;3.47;1.58;;;18.00;99.90;;;;;;5045117;28;20048;-68
2023/09/25 10:16:06;;;;;;;5.18;1.50;;;18.10;99.90;;;;;;5041050;28;20044;-68
2023/09/25 10:18:32;;;;;;;2.88;1.63;;;18.20;99.90;;;;;;5037619;28;20036;-69
2023/09/25 10:21:08;;;;;;;3.83;1.20;;;18.30;99.90;;;;;;5023789;28;20092;-69
2023/09/25 10:23:34;;;;;;;4.03;1.15;;;18.30;99.90;;;;;;5053733;28;20044;-69
2023/09/25 10:26:02;;;;;;;4.13;1.25;;;18.40;99.90;;;;;;5056151;28;20400;-69
2023/09/25 10:28:33;;;;;;;7.07;1.40;;;18.50;99.90;;;;;;5039214;28;20332;-69
2023/09/25 10:31:03;;;;;;;5.18;2.20;;;18.60;99.90;;;;;;5038046;28;20041;-69
2023/09/25 10:33:33;;;;;;;3.20;1.40;;;18.60;99.90;;;;;;5041348;28;20056;-69
2023/09/25 10:36:04;;;;;;;3.80;1.40;;;18.70;99.90;;;;;;5040400;28;20214;-69
2023/09/25 10:38:33;;;;;;;2.65;1.20;;;18.70;99.90;;;;;;5052520;28;20523;-69
2023/09/25 10:41:06;;;;;;;3.30;1.52;;;18.70;99.90;;;;;;5042821;28;20037;-69
2023/09/25 10:43:33;;;;;;;2.83;1.40;;;18.80;99.90;;;;;;5035272;28;20044;-69
2023/09/25 10:45:59;;;;;;;4.60;1.60;;;18.80;99.90;;;;;;5045628;28;20468;-69
2023/09/25 10:48:31;;;;;;;2.70;1.38;;;19.00;99.90;;;;;;5017567;28;20466;-69
2023/09/25 10:50:56;;;;;;;2.15;1.20;;;19.10;99.90;;;;;;5028503;28;20048;-69
2023/09/25 10:53:22;;;;;;;4.28;1.40;;;19.30;99.90;;;;;;5058224;28;20047;-69
2023/09/25 10:55:48;;;;;;;3.50;1.35;;;19.50;99.90;;;;;;5046241;28;20047;-69
2023/09/25 10:58:15;;;;;;;3.15;1.38;;;19.60;99.90;;;;;;5064513;28;20123;-68
2023/09/25 11:00:42;;;;;;;2.08;1.13;;;19.70;99.90;;;;;;5042172;28;20074;-69
2023/09/25 11:03:09;;;;;;;2.85;1.45;;;19.70;99.90;;;;;;5046864;28;20178;-69
2023/09/25 11:05:37;;;;;;;3.25;1.30;;;19.80;99.90;;;;;;5048666;28;20047;-69
2023/09/25 11:08:04;;;;;;;2.58;1.33;;;19.90;99.90;;;;;;5040877;28;20432;-68
2023/09/25 11:10:37;;;;;;;3.15;1.13;;;19.90;99.90;;;;;;5063732;28;20473;-69
2023/09/25 11:13:04;;;;;;;3.72;1.60;;;20.00;99.90;;;;;;5067489;28;20080;-68
2023/09/25 11:15:35;;;;;;;4.07;1.38;;;19.90;99.90;;;;;;5036526;28;20411;-69
2023/09/25 11:18:00;;;;;;;4.03;1.45;;;19.90;99.90;;;;;;5064827;28;20186;-69
2023/09/25 11:20:30;;;;;;;4.55;1.63;;;20.00;99.90;;;;;;5062468;28;20047;-69
2023/09/25 11:23:31;;;;;;;3.20;1.40;;;20.00;99.90;;;;;;5047433;28;20100;-69
2023/09/25 11:25:57;;;;;;;2.90;1.42;;;20.10;99.90;;;;;;4935615;28;20051;-69
2023/09/25 11:28:27;;;;;;;2.83;1.13;;;20.20;99.90;;;;;;5029829;28;20109;-69
2023/09/25 11:30:54;;;;;;;3.50;1.33;;;20.30;99.90;;;;;;5060723;28;20503;-69
2023/09/25 11:33:21;;;;;;;3.55;1.60;;;20.30;99.90;;;;;;5063585;28;20102;-70
2023/09/25 11:35:52;;;;;;;3.13;1.40;;;20.40;99.90;;;;;;5043999;28;20043;-69
2023/09/25 11:38:21;;;;;;;3.67;1.13;;;20.50;99.90;;;;;;5061209;28;20123;-69
2023/09/25 11:40:50;;;;;;;2.97;1.30;;;20.50;99.90;;;;;;5061544;28;20060;-69
2023/09/25 11:43:16;;;;;;;4.30;1.67;;;20.60;99.90;;;;;;5056026;28;20467;-70
2023/09/25 11:45:42;;;;;;;3.10;1.25;;;20.60;99.90;;;;;;5034393;28;20345;-70
2023/09/25 11:48:09;;;;;;;;;;;20.50;99.90;;;;;;5047082;28;20119;-69
2023/09/25 11:50:35;;;;;;;3.27;1.37;;;20.50;99.90;;;;;;5062447;28;20319;-69
2023/09/25 11:53:01;;;;;;;2.53;1.08;;;20.50;99.90;;;;;;5039418;28;20041;-69
2023/09/25 11:55:28;;;;;;;3.72;1.63;;;20.40;99.90;;;;;;5064382;28;20056;-69
2023/09/25 11:57:54;;;;;;;3.25;1.30;;;20.40;99.90;;;;;;5057947;28;20302;-70
2023/09/25 12:00:22;;;;;;;2.58;1.13;;;20.30;99.90;;;;;;5059884;28;20086;-69
2023/09/25 12:02:49;;;;;;;4.38;1.63;;;20.30;99.90;;;;;;5039848;28;20093;-70
2023/09/25 12:05:20;;;;;;;4.55;1.50;;;20.40;99.90;;;;;;5065559;28;20526;-69
2023/09/25 12:07:47;;;;;;;5.47;1.38;;;20.40;99.90;;;;;;5036827;28;20041;-69
2023/09/25 12:10:17;;;;;;;4.68;1.55;;;20.30;99.90;;;;;;5049466;28;20064;-69
2023/09/25 12:12:49;;;;;;;6.90;1.67;;;20.30;99.90;;;;;;5039177;28;20484;-69
2023/09/25 12:15:18;;;;;;;3.80;1.40;;;20.30;99.90;;;;;;5030596;28;20045;-70
2023/09/25 12:17:44;;;;;;;2.75;1.27;;;20.40;99.90;;;;;;5026808;28;20274;-69
2023/09/25 12:20:22;;;;;;;2.60;1.30;;;20.50;99.90;;;;;;5059213;28;20028;-70
2023/09/25 12:22:52;;;;;;;4.13;1.25;;;20.50;99.90;;;;;;5055604;28;20032;-70
2023/09/25 12:25:19;;;;;;;2.88;1.20;;;20.60;99.90;;;;;;5030704;28;20037;-69
2023/09/25 12:27:46;;;;;;;3.17;1.27;;;20.80;99.90;;;;;;5055978;28;20036;-69
2023/09/25 12:30:16;;;;;;;4.72;1.50;;;21.00;99.90;;;;;;5042493;28;20040;-69
2023/09/25 12:32:44;;;;;;;3.60;1.30;;;21.10;99.90;;;;;;5062750;28;20066;-70
2023/09/25 12:35:14;;;;;;;3.30;1.35;;;21.30;99.90;;;;;;5043997;28;20040;-70
2023/09/25 12:37:41;;;;;;;4.80;1.65;;;21.30;99.90;;;;;;5037503;28;20444;-70
2023/09/25 12:40:07;;;;;;;5.35;1.60;;;21.50;99.90;;;;;;5038898;28;20318;-69
2023/09/25 12:42:34;;;;;;;3.70;1.15;;;21.60;99.90;;;;;;5060721;28;20139;-69
2023/09/25 12:45:00;;;;;;;2.85;1.30;;;21.70;99.90;;;;;;5059411;28;20174;-70
2023/09/25 12:47:26;;;;;;;;;;;21.90;99.90;;;;;;5064369;28;20128;-69
2023/09/25 12:49:53;;;;;;;5.57;1.45;;;21.90;99.90;;;;;;5065375;28;20010;-70